Time;durP1;ratioP1;P1;durP2;ratioP2;P2;SDS_P1;SDS_P2;PMS_P1;PMS_P2;Temp;Humidity;BMP_temperature;BMP_pressure;BME280_temperature;BME280_humidity;BME280_pressure;Samples;Min_cycle;Max_cycle;Signal;HPM_P1;HPM_P2
2023/08/14 12:57:07;;;;;;;5.10;0.98;;;;;;;;;;7438361;19;20453;-92
2023/08/14 12:59:34;;;;;;;0.73;0.73;;;;;;;;;;7430855;19;20154;-92
2023/08/14 13:02:00;;;;;;;0.90;0.90;;;;;;;;;;7431231;19;20157;-90
2023/08/14 13:04:27;;;;;;;0.60;0.60;;;;;;;;;;7433946;19;20136;-90
2023/08/14 13:06:55;;;;;;;0.98;0.95;;;;;;;;;;7432409;19;20172;-91
2023/08/14 13:09:21;;;;;;;0.40;0.40;;;;;;;;;;7436711;19;20132;-92
2023/08/14 13:11:48;;;;;;;0.55;0.52;;;;;;;;;;7432561;19;20635;-92
2023/08/14 13:14:15;;;;;;;0.88;0.88;;;;;;;;;;7435000;19;20172;-90
2023/08/14 13:16:42;;;;;;;1.13;1.13;;;;;;;;;;7432638;19;20196;-91
2023/08/14 13:19:09;;;;;;;1.05;1.05;;;;;;;;;;7432237;19;20164;-92
2023/08/14 13:21:35;;;;;;;1.15;1.13;;;;;;;;;;7432023;19;20147;-90
2023/08/14 13:24:02;;;;;;;0.50;0.50;;;;;;;;;;7409066;19;20137;-92
2023/08/14 13:26:29;;;;;;;0.50;0.50;;;;;;;;;;7401881;19;20561;-92
2023/08/14 13:29:00;;;;;;;0.85;0.85;;;;;;;;;;7403319;19;20423;-91
2023/08/14 13:31:27;;;;;;;0.63;0.63;;;;;;;;;;7402450;19;20137;-92
2023/08/14 13:33:54;;;;;;;0.82;0.73;;;;;;;;;;7403692;19;20136;-91
2023/08/14 13:36:21;;;;;;;;;;;;;;;;;;7407671;19;20015;-88
2023/08/14 13:38:47;;;;;;;0.90;0.90;;;;;;;;;;7403334;19;20402;-89
2023/08/14 13:41:14;;;;;;;1.00;1.00;;;;;;;;;;7405716;19;20337;-89
2023/08/14 13:43:40;;;;;;;0.93;0.93;;;;;;;;;;7404342;19;20368;-90
2023/08/14 13:46:07;;;;;;;0.95;0.57;;;;;;;;;;7399618;19;20365;-89
2023/08/14 13:48:34;;;;;;;0.88;0.88;;;;;;;;;;7403737;19;20723;-90
2023/08/14 13:51:01;;;;;;;0.70;0.70;;;;;;;;;;7410199;19;20145;-89
2023/08/14 13:53:27;;;;;;;0.75;0.75;;;;;;;;;;7403239;19;20588;-90
2023/08/14 13:55:54;;;;;;;0.90;0.90;;;;;;;;;;7403154;19;20578;-89
2023/08/14 13:58:21;;;;;;;0.98;0.98;;;;;;;;;;7402706;19;20140;-89
2023/08/14 14:00:47;;;;;;;0.60;0.60;;;;;;;;;;7403262;19;20141;-89
2023/08/14 14:03:14;;;;;;;0.63;0.63;;;;;;;;;;7403480;19;20141;-89
2023/08/14 14:05:41;;;;;;;0.60;0.60;;;;;;;;;;7400608;19;20252;-90
2023/08/14 14:08:07;;;;;;;0.57;0.57;;;;;;;;;;7404186;19;20141;-89
2023/08/14 14:10:34;;;;;;;1.67;1.58;;;;;;;;;;7400803;19;20149;-90
2023/08/14 14:13:01;;;;;;;0.73;0.73;;;;;;;;;;7400793;19;20141;-90
2023/08/14 14:15:29;;;;;;;0.80;0.80;;;;;;;;;;7399562;19;20156;-91
2023/08/14 14:17:56;;;;;;;0.63;0.63;;;;;;;;;;7400641;19;20153;-90
2023/08/14 14:20:23;;;;;;;1.02;1.02;;;;;;;;;;7397494;19;20158;-89
2023/08/14 14:22:49;;;;;;;0.85;0.85;;;;;;;;;;7399728;19;20196;-90
2023/08/14 14:25:16;;;;;;;0.60;0.60;;;;;;;;;;7400896;19;20193;-91
2023/08/14 14:27:43;;;;;;;0.90;0.90;;;;;;;;;;7402122;19;20153;-90
2023/08/14 14:30:10;;;;;;;0.98;0.98;;;;;;;;;;7400923;19;20603;-90
2023/08/14 14:32:37;;;;;;;1.05;1.05;;;;;;;;;;7400499;19;20149;-91
2023/08/14 14:35:04;;;;;;;0.88;0.88;;;;;;;;;;7396695;19;20349;-90
2023/08/14 14:37:31;;;;;;;1.00;1.00;;;;;;;;;;7399639;19;20362;-90
2023/08/14 14:39:58;;;;;;;0.57;0.57;;;;;;;;;;7401454;19;20153;-89
2023/08/14 14:42:25;;;;;;;0.60;0.60;;;;;;;;;;7398894;19;20368;-90
2023/08/14 14:44:53;;;;;;;0.80;0.80;;;;;;;;;;7399155;19;20669;-90
2023/08/14 14:47:22;;;;;;;1.90;0.90;;;;;;;;;;7399768;19;20382;-90
2023/08/14 14:49:50;;;;;;;0.90;0.90;;;;;;;;;;7398602;19;20357;-91
2023/08/14 14:52:16;;;;;;;1.08;0.98;;;;;;;;;;7396506;19;20498;-91
2023/08/14 14:54:43;;;;;;;0.77;0.73;;;;;;;;;;7398361;19;20898;-91
2023/08/14 14:57:10;;;;;;;1.20;1.10;;;;;;;;;;7397714;19;20453;-90
2023/08/14 14:59:36;;;;;;;0.60;0.60;;;;;;;;;;7398984;19;20389;-91
2023/08/14 15:02:03;;;;;;;0.77;0.77;;;;;;;;;;7398371;19;20703;-89
2023/08/14 15:04:45;;;;;;;1.02;0.50;;;;;;;;;;7399711;19;20336;-90
2023/08/14 15:07:12;;;;;;;0.60;0.60;;;;;;;;;;7397066;19;20336;-90
2023/08/14 15:09:38;;;;;;;0.80;0.80;;;;;;;;;;7398230;19;20353;-89
2023/08/14 15:12:05;;;;;;;0.60;0.60;;;;;;;;;;7397134;19;20377;-90
2023/08/14 15:14:33;;;;;;;1.90;0.90;;;;;;;;;;7397822;19;20416;-90
2023/08/14 15:17:00;;;;;;;0.70;0.70;;;;;;;;;;7394533;19;20361;-90
2023/08/14 15:19:26;;;;;;;0.68;0.68;;;;;;;;;;7396117;19;20345;-90
2023/08/14 15:21:53;;;;;;;0.70;0.70;;;;;;;;;;7395566;19;20371;-91
2023/08/14 15:24:20;;;;;;;1.40;1.30;;;;;;;;;;7396321;19;20381;-90
2023/08/14 15:26:46;;;;;;;0.73;0.73;;;;;;;;;;7392416;19;20365;-91
2023/08/14 15:29:17;;;;;;;0.80;0.80;;;;;;;;;;7396597;19;20333;-90
2023/08/14 15:31:44;;;;;;;1.65;0.85;;;;;;;;;;7393434;19;20345;-90
2023/08/14 15:34:10;;;;;;;0.80;0.80;;;;;;;;;;7396027;19;20368;-90
2023/08/14 15:36:37;;;;;;;0.60;0.60;;;;;;;;;;7393752;19;20365;-90
2023/08/14 15:39:04;;;;;;;0.70;0.70;;;;;;;;;;7395421;19;20415;-91
2023/08/14 15:41:30;;;;;;;0.70;0.70;;;;;;;;;;7393258;19;20392;-91
2023/08/14 15:43:57;;;;;;;0.75;0.75;;;;;;;;;;7394110;19;20851;-91
2023/08/14 15:46:24;;;;;;;0.40;0.40;;;;;;;;;;7392015;19;20930;-91
2023/08/14 15:48:52;;;;;;;;;;;;;;;;;;7395883;19;20021;-88
2023/08/14 15:51:21;;;;;;;;;;;;;;;;;;7389532;19;20238;-88
2023/08/14 15:53:48;;;;;;;0.80;0.80;;;;;;;;;;7393264;19;20182;-88
2023/08/14 15:56:14;;;;;;;0.73;0.73;;;;;;;;;;7392601;19;20163;-87
2023/08/14 15:58:41;;;;;;;0.80;0.80;;;;;;;;;;7394228;19;20144;-89
2023/08/14 16:01:07;;;;;;;0.70;0.70;;;;;;;;;;7394159;19;20135;-89
2023/08/14 16:03:35;;;;;;;0.60;0.60;;;;;;;;;;7398811;19;20129;-89
2023/08/14 16:06:04;;;;;;;1.63;1.33;;;;;;;;;;7398777;19;20149;-90
2023/08/14 16:08:31;;;;;;;1.27;1.27;;;;;;;;;;7399686;19;20214;-90
2023/08/14 16:10:58;;;;;;;0.77;0.77;;;;;;;;;;7399843;19;20141;-89
2023/08/14 16:13:25;;;;;;;1.25;1.20;;;;;;;;;;7399841;19;20632;-89
2023/08/14 16:15:52;;;;;;;1.15;1.08;;;;;;;;;;7401217;19;20348;-90
2023/08/14 16:18:18;;;;;;;0.88;0.88;;;;;;;;;;7413860;19;20153;-88
2023/08/14 16:20:45;;;;;;;1.27;1.17;;;;;;;;;;7428114;19;20665;-88
2023/08/14 16:23:12;;;;;;;1.58;1.30;;;;;;;;;;7427339;19;20137;-87
2023/08/14 16:25:38;;;;;;;1.15;1.08;;;;;;;;;;7423794;19;20141;-90
2023/08/14 16:28:05;;;;;;;4.45;1.10;;;;;;;;;;7419014;19;20864;-90
2023/08/14 16:30:35;;;;;;;0.75;0.75;;;;;;;;;;7400039;19;20216;-90
2023/08/14 16:33:03;;;;;;;1.08;1.08;;;;;;;;;;7398014;19;20140;-91
2023/08/14 16:35:30;;;;;;;0.68;0.68;;;;;;;;;;7397446;19;20513;-91
2023/08/14 16:37:57;;;;;;;0.93;0.93;;;;;;;;;;7398007;19;20160;-89
2023/08/14 16:40:24;;;;;;;1.05;1.05;;;;;;;;;;7397963;19;20619;-91
2023/08/14 16:42:51;;;;;;;0.60;0.60;;;;;;;;;;7395397;19;20147;-90
2023/08/14 16:45:17;;;;;;;1.15;1.15;;;;;;;;;;7397747;19;20157;-89
2023/08/14 16:47:44;;;;;;;0.50;0.50;;;;;;;;;;7394488;19;20145;-90
2023/08/14 16:50:11;;;;;;;0.68;0.68;;;;;;;;;;7393112;19;20501;-91
2023/08/14 16:52:38;;;;;;;0.40;0.40;;;;;;;;;;7396980;19;20141;-91
2023/08/14 16:55:05;;;;;;;0.77;0.77;;;;;;;;;;7395540;19;20145;-91
2023/08/14 16:57:31;;;;;;;1.67;1.40;;;;;;;;;;7391384;19;20145;-91
2023/08/14 16:59:59;;;;;;;0.50;0.50;;;;;;;;;;7398788;19;20151;-90
2023/08/14 17:02:25;;;;;;;0.47;0.47;;;;;;;;;;7399976;19;20212;-91
2023/08/14 17:04:52;;;;;;;1.80;1.33;;;;;;;;;;7399385;19;20201;-91
2023/08/14 17:07:18;;;;;;;0.50;0.50;;;;;;;;;;7402005;19;20832;-91
2023/08/14 17:09:46;;;;;;;0.60;0.60;;;;;;;;;;7399467;19;20145;-91
2023/08/14 17:12:12;;;;;;;0.50;0.50;;;;;;;;;;7400894;19;20133;-91
2023/08/14 17:14:39;;;;;;;0.88;0.88;;;;;;;;;;7396788;19;20129;-91
2023/08/14 17:17:06;;;;;;;0.90;0.90;;;;;;;;;;7396227;19;20180;-91
2023/08/14 17:19:32;;;;;;;1.65;1.55;;;;;;;;;;7401065;19;20141;-91
2023/08/14 17:21:59;;;;;;;1.55;1.45;;;;;;;;;;7395685;19;20144;-90
2023/08/14 17:24:26;;;;;;;0.50;0.50;;;;;;;;;;7399426;19;20166;-91
2023/08/14 17:26:53;;;;;;;0.70;0.70;;;;;;;;;;7397978;19;20208;-89
2023/08/14 17:29:22;;;;;;;0.70;0.70;;;;;;;;;;7400567;19;20145;-89
2023/08/14 17:31:49;;;;;;;0.80;0.80;;;;;;;;;;7406831;19;20197;-88
2023/08/14 17:34:16;;;;;;;1.10;1.05;;;;;;;;;;7400269;19;20372;-88
2023/08/14 17:36:42;;;;;;;1.60;1.30;;;;;;;;;;7396967;19;20345;-87
2023/08/14 17:39:15;;;;;;;0.88;0.88;;;;;;;;;;7399991;19;20688;-88
2023/08/14 17:41:42;;;;;;;1.10;1.00;;;;;;;;;;7401930;19;20428;-88
2023/08/14 17:44:09;;;;;;;0.80;0.80;;;;;;;;;;7405993;19;20454;-88
2023/08/14 17:46:36;;;;;;;0.73;0.73;;;;;;;;;;7401395;19;20374;-88
2023/08/14 17:49:03;;;;;;;0.68;0.68;;;;;;;;;;7400957;19;20348;-87
2023/08/14 17:51:30;;;;;;;1.08;1.08;;;;;;;;;;7422655;19;20360;-89
2023/08/14 17:53:58;;;;;;;0.75;0.75;;;;;;;;;;7410596;19;20356;-91
2023/08/14 17:56:25;;;;;;;1.02;1.02;;;;;;;;;;7416651;19;20363;-89
2023/08/14 17:58:51;;;;;;;0.80;0.80;;;;;;;;;;7408271;19;20352;-90
2023/08/14 18:01:33;;;;;;;0.70;0.70;;;;;;;;;;7400016;19;20360;-89
2023/08/14 18:04:00;;;;;;;0.30;0.30;;;;;;;;;;7394477;19;20220;-88
2023/08/14 18:06:27;;;;;;;0.73;0.73;;;;;;;;;;7397384;19;20157;-88
2023/08/14 18:08:54;;;;;;;0.52;0.52;;;;;;;;;;7396115;19;20141;-88
2023/08/14 18:11:20;;;;;;;0.52;0.52;;;;;;;;;;7399855;19;20159;-89
2023/08/14 18:13:47;;;;;;;0.55;0.55;;;;;;;;;;7396389;19;20220;-88
2023/08/14 18:16:14;;;;;;;0.60;0.60;;;;;;;;;;7396763;19;20193;-88
2023/08/14 18:18:40;;;;;;;0.63;0.63;;;;;;;;;;7399053;19;20145;-88
2023/08/14 18:21:07;;;;;;;0.47;0.47;;;;;;;;;;7386482;19;20148;-88
2023/08/14 18:23:34;;;;;;;0.52;0.52;;;;;;;;;;7397768;19;20200;-88
2023/08/14 18:26:07;;;;;;;0.60;0.60;;;;;;;;;;7395271;19;20148;-88
2023/08/14 18:28:33;;;;;;;0.52;0.52;;;;;;;;;;7397928;19;20145;-88
2023/08/14 18:31:00;;;;;;;1.23;1.13;;;;;;;;;;7400290;19;20151;-88
2023/08/14 18:33:27;;;;;;;1.00;0.88;;;;;;;;;;7401633;19;20139;-87
2023/08/14 18:35:53;;;;;;;0.77;0.77;;;;;;;;;;7401907;19;20159;-88
2023/08/14 18:38:20;;;;;;;0.63;0.63;;;;;;;;;;7394258;19;20512;-88
2023/08/14 18:40:47;;;;;;;0.60;0.60;;;;;;;;;;7398104;19;20423;-88
2023/08/14 18:43:14;;;;;;;1.30;1.10;;;;;;;;;;7394974;19;20424;-88
2023/08/14 18:45:40;;;;;;;1.23;1.23;;;;;;;;;;7397338;19;20348;-88
2023/08/14 18:48:07;;;;;;;0.93;0.93;;;;;;;;;;7398800;19;20661;-88
2023/08/14 18:50:34;;;;;;;0.82;0.82;;;;;;;;;;7394974;19;20989;-88
2023/08/14 18:53:01;;;;;;;0.88;0.82;;;;;;;;;;7396100;19;20415;-88
2023/08/14 18:55:28;;;;;;;1.17;0.87;;;;;;;;;;7395801;19;20431;-88
2023/08/14 18:57:55;;;;;;;0.90;0.90;;;;;;;;;;7392510;19;20926;-88
2023/08/14 19:00:21;;;;;;;1.70;0.80;;;;;;;;;;7392003;19;20347;-88
2023/08/14 19:02:48;;;;;;;1.08;1.08;;;;;;;;;;7395248;19;20348;-88
2023/08/14 19:05:15;;;;;;;0.88;0.88;;;;;;;;;;7393703;19;20364;-88
2023/08/14 19:07:51;;;;;;;0.77;0.77;;;;;;;;;;7396457;19;20365;-90
2023/08/14 19:10:28;;;;;;;1.33;1.30;;;;;;;;;;7396162;19;20392;-89
2023/08/14 19:12:56;;;;;;;0.88;0.88;;;;;;;;;;7399709;19;20341;-89
2023/08/14 19:15:26;;;;;;;1.02;0.98;;;;;;;;;;7394655;19;20340;-89
2023/08/14 19:17:52;;;;;;;1.08;1.08;;;;;;;;;;7398431;19;20367;-89
2023/08/14 19:20:19;;;;;;;0.73;0.73;;;;;;;;;;7393556;19;20353;-90
2023/08/14 19:22:46;;;;;;;0.63;0.63;;;;;;;;;;7392610;19;20336;-88
2023/08/14 19:25:13;;;;;;;0.90;0.90;;;;;;;;;;7393435;19;20424;-89
2023/08/14 19:27:40;;;;;;;1.30;1.20;;;;;;;;;;7394084;19;20357;-88
2023/08/14 19:30:07;;;;;;;1.23;1.13;;;;;;;;;;7394926;19;20361;-88
2023/08/14 19:32:34;;;;;;;1.00;1.00;;;;;;;;;;7391944;19;20437;-88
2023/08/14 19:35:00;;;;;;;0.90;0.90;;;;;;;;;;7392101;19;20371;-88
2023/08/14 19:37:27;;;;;;;0.82;0.82;;;;;;;;;;7386957;19;20352;-87
2023/08/14 19:39:54;;;;;;;0.70;0.70;;;;;;;;;;7391158;19;20470;-87
2023/08/14 19:42:20;;;;;;;0.80;0.80;;;;;;;;;;7391192;19;20890;-87
2023/08/14 19:44:47;;;;;;;0.93;0.93;;;;;;;;;;7395640;19;20340;-86
2023/08/14 19:47:14;;;;;;;0.70;0.70;;;;;;;;;;7392025;19;20349;-85
2023/08/14 19:49:41;;;;;;;0.98;0.95;;;;;;;;;;7390571;19;20359;-87
2023/08/14 19:52:08;;;;;;;0.90;0.90;;;;;;;;;;7390154;19;20359;-86
2023/08/14 19:54:34;;;;;;;1.38;1.27;;;;;;;;;;7391544;19;20368;-87
2023/08/14 19:57:01;;;;;;;1.03;1.03;;;;;;;;;;7389455;19;20343;-87
2023/08/14 19:59:28;;;;;;;0.77;0.77;;;;;;;;;;7392446;19;20680;-87
2023/08/14 20:01:56;;;;;;;1.17;1.17;;;;;;;;;;7388715;19;20359;-87
2023/08/14 20:04:22;;;;;;;1.83;1.30;;;;;;;;;;7393075;19;20361;-86
2023/08/14 20:06:49;;;;;;;0.95;0.95;;;;;;;;;;7388051;19;20351;-87
2023/08/14 20:09:16;;;;;;;0.95;0.95;;;;;;;;;;7393056;19;20354;-86
2023/08/14 20:11:43;;;;;;;1.00;1.00;;;;;;;;;;7393184;19;20364;-86
2023/08/14 20:14:09;;;;;;;1.10;1.00;;;;;;;;;;7387713;19;20444;-86
2023/08/14 20:16:36;;;;;;;1.15;1.05;;;;;;;;;;7389525;19;20425;-86
2023/08/14 20:19:03;;;;;;;1.10;1.10;;;;;;;;;;7391579;19;20333;-86
2023/08/14 20:21:30;;;;;;;0.70;0.70;;;;;;;;;;7391421;19;20321;-86
2023/08/14 20:23:56;;;;;;;0.95;0.95;;;;;;;;;;7389984;19;20389;-86
2023/08/14 20:26:24;;;;;;;1.00;1.00;;;;;;;;;;7387956;19;20336;-86
2023/08/14 20:28:50;;;;;;;0.93;0.93;;;;;;;;;;7387350;19;20420;-86
2023/08/14 20:31:20;;;;;;;0.90;0.90;;;;;;;;;;7383539;19;20349;-86
2023/08/14 20:33:47;;;;;;;0.90;0.90;;;;;;;;;;7393665;19;20353;-85
2023/08/14 20:36:19;;;;;;;0.90;0.90;;;;;;;;;;7393390;19;20452;-85
2023/08/14 20:38:45;;;;;;;1.40;1.02;;;;;;;;;;7400114;19;20354;-85
2023/08/14 20:41:12;;;;;;;1.30;1.20;;;;;;;;;;7398520;19;20327;-86
2023/08/14 20:43:39;;;;;;;0.95;0.95;;;;;;;;;;7396688;19;21772;-85
2023/08/14 20:46:05;;;;;;;0.82;0.82;;;;;;;;;;7396831;19;20398;-85
2023/08/14 20:48:32;;;;;;;0.90;0.90;;;;;;;;;;7393277;19;20931;-86
2023/08/14 20:50:59;;;;;;;0.98;0.93;;;;;;;;;;7394430;19;20351;-86
2023/08/14 20:53:26;;;;;;;1.00;0.88;;;;;;;;;;7390079;19;20349;-85
2023/08/14 20:55:53;;;;;;;0.85;0.85;;;;;;;;;;7394250;19;20359;-85
2023/08/14 20:58:19;;;;;;;0.80;0.80;;;;;;;;;;7398164;19;20356;-85
2023/08/14 21:00:46;;;;;;;0.67;0.67;;;;;;;;;;7385102;19;20337;-86
2023/08/14 21:03:16;;;;;;;0.70;0.70;;;;;;;;;;7387521;19;20344;-85
2023/08/14 21:05:49;;;;;;;1.15;1.05;;;;;;;;;;7393677;19;20394;-84
2023/08/14 21:08:16;;;;;;;1.50;1.20;;;;;;;;;;7390760;19;20884;-85
2023/08/14 21:10:43;;;;;;;2.50;1.10;;;;;;;;;;7388520;19;20364;-84
2023/08/14 21:13:09;;;;;;;0.80;0.80;;;;;;;;;;7393400;19;20348;-84
2023/08/14 21:15:36;;;;;;;0.70;0.70;;;;;;;;;;7391938;19;20398;-85
2023/08/14 21:18:04;;;;;;;1.00;1.00;;;;;;;;;;7396158;19;20341;-85
2023/08/14 21:20:31;;;;;;;0.90;0.90;;;;;;;;;;7395111;19;20361;-85
2023/08/14 21:22:59;;;;;;;1.08;1.02;;;;;;;;;;7396475;19;20747;-86
2023/08/14 21:25:28;;;;;;;1.05;1.05;;;;;;;;;;7397625;19;20408;-85
2023/08/14 21:28:09;;;;;;;0.63;0.63;;;;;;;;;;7399211;19;20724;-84
2023/08/14 21:30:37;;;;;;;0.98;0.98;;;;;;;;;;7394912;19;20356;-85
2023/08/14 21:33:04;;;;;;;0.98;0.98;;;;;;;;;;7398628;19;20357;-85
2023/08/14 21:35:30;;;;;;;0.70;0.70;;;;;;;;;;7395478;19;20341;-85
2023/08/14 21:37:57;;;;;;;0.80;0.80;;;;;;;;;;7399778;19;20353;-85
2023/08/14 21:40:24;;;;;;;0.70;0.70;;;;;;;;;;7398747;19;20360;-85
2023/08/14 21:42:50;;;;;;;0.90;0.90;;;;;;;;;;7396576;19;20366;-85
2023/08/14 21:45:17;;;;;;;0.65;0.65;;;;;;;;;;7395681;19;20742;-84
2023/08/14 21:47:44;;;;;;;1.00;1.00;;;;;;;;;;7399184;19;20337;-85
2023/08/14 21:50:10;;;;;;;1.25;1.15;;;;;;;;;;7398153;19;20356;-84
2023/08/14 21:52:37;;;;;;;0.85;0.85;;;;;;;;;;7399667;19;20408;-84
2023/08/14 21:55:04;;;;;;;1.00;1.00;;;;;;;;;;7396014;19;20359;-85
2023/08/14 21:57:30;;;;;;;1.00;0.90;;;;;;;;;;7399885;19;20429;-84
2023/08/14 21:59:57;;;;;;;0.70;0.70;;;;;;;;;;7400263;19;20408;-85
2023/08/14 22:02:24;;;;;;;0.80;0.80;;;;;;;;;;7399167;19;20708;-85
2023/08/14 22:04:50;;;;;;;1.02;1.02;;;;;;;;;;7399677;19;20380;-85
2023/08/14 22:07:17;;;;;;;0.88;0.73;;;;;;;;;;7400043;19;20372;-85
2023/08/14 22:09:44;;;;;;;0.88;0.88;;;;;;;;;;7399064;19;21257;-85
2023/08/14 22:12:11;;;;;;;0.90;0.90;;;;;;;;;;7397290;19;20910;-85
2023/08/14 22:14:38;;;;;;;0.50;0.50;;;;;;;;;;7408326;19;20340;-84
2023/08/14 22:17:04;;;;;;;0.80;0.80;;;;;;;;;;7426037;19;20359;-85
2023/08/14 22:19:31;;;;;;;1.50;0.70;;;;;;;;;;7427069;19;20362;-84
2023/08/14 22:21:57;;;;;;;1.10;0.80;;;;;;;;;;7426536;19;20384;-85
2023/08/14 22:24:24;;;;;;;1.63;0.95;;;;;;;;;;7416619;19;20360;-85
2023/08/14 22:27:06;;;;;;;1.17;1.17;;;;;;;;;;7402226;19;20357;-86
2023/08/14 22:29:32;;;;;;;1.00;1.00;;;;;;;;;;7398726;19;20355;-86
2023/08/14 22:31:59;;;;;;;0.93;0.93;;;;;;;;;;7400799;19;20801;-86
2023/08/14 22:34:26;;;;;;;1.88;0.80;;;;;;;;;;7399719;19;20336;-86
2023/08/14 22:36:52;;;;;;;0.80;0.80;;;;;;;;;;7399351;19;20345;-86
2023/08/14 22:39:19;;;;;;;0.73;0.73;;;;;;;;;;7402143;19;20440;-86
2023/08/14 22:41:46;;;;;;;1.70;0.77;;;;;;;;;;7403383;19;20336;-86
2023/08/14 22:44:12;;;;;;;0.90;0.90;;;;;;;;;;7401796;19;20353;-86
2023/08/14 22:46:39;;;;;;;0.85;0.85;;;;;;;;;;7396881;19;21016;-86
2023/08/14 22:49:06;;;;;;;0.77;0.77;;;;;;;;;;7396711;19;20886;-86
2023/08/14 22:51:32;;;;;;;0.70;0.70;;;;;;;;;;7395281;19;20341;-86
2023/08/14 22:54:00;;;;;;;0.77;0.77;;;;;;;;;;7403667;19;20414;-86
2023/08/14 22:56:26;;;;;;;1.00;1.00;;;;;;;;;;7398541;19;20357;-86
2023/08/14 22:58:54;;;;;;;0.88;0.88;;;;;;;;;;7395291;19;20352;-86
2023/08/14 23:01:21;;;;;;;0.90;0.90;;;;;;;;;;7398546;19;20353;-86
2023/08/14 23:03:48;;;;;;;0.93;0.93;;;;;;;;;;7405087;19;20363;-85
2023/08/14 23:06:14;;;;;;;0.85;0.85;;;;;;;;;;7398367;19;20345;-85
2023/08/14 23:08:41;;;;;;;0.80;0.80;;;;;;;;;;7400664;19;20336;-86
2023/08/14 23:11:08;;;;;;;0.60;0.60;;;;;;;;;;7397851;19;20356;-85
2023/08/14 23:13:34;;;;;;;0.63;0.63;;;;;;;;;;7396712;19;20431;-85
2023/08/14 23:16:02;;;;;;;1.33;0.90;;;;;;;;;;7395337;19;20375;-85
2023/08/14 23:18:29;;;;;;;1.10;1.00;;;;;;;;;;7385573;19;20360;-84
2023/08/14 23:20:55;;;;;;;0.70;0.70;;;;;;;;;;7393415;19;20357;-85
2023/08/14 23:23:22;;;;;;;0.80;0.80;;;;;;;;;;7389195;19;20469;-85
2023/08/14 23:25:49;;;;;;;0.70;0.70;;;;;;;;;;7389380;19;20360;-85
2023/08/14 23:28:16;;;;;;;1.27;0.98;;;;;;;;;;7393631;19;20344;-85
2023/08/14 23:30:43;;;;;;;0.95;0.95;;;;;;;;;;7393193;19;20360;-84
2023/08/14 23:33:10;;;;;;;0.85;0.85;;;;;;;;;;7395727;19;20336;-85
2023/08/14 23:35:37;;;;;;;0.60;0.60;;;;;;;;;;7392405;19;20368;-85
2023/08/14 23:38:04;;;;;;;0.63;0.63;;;;;;;;;;7392775;19;20328;-85
2023/08/14 23:40:30;;;;;;;0.70;0.70;;;;;;;;;;7393375;19;20891;-85
2023/08/14 23:42:57;;;;;;;0.55;0.55;;;;;;;;;;7391954;19;20349;-85
2023/08/14 23:45:24;;;;;;;0.80;0.80;;;;;;;;;;7394037;19;20909;-85
2023/08/14 23:47:51;;;;;;;0.63;0.63;;;;;;;;;;7394884;19;20373;-85
2023/08/14 23:50:17;;;;;;;1.20;1.00;;;;;;;;;;7391825;19;20336;-85
2023/08/14 23:52:44;;;;;;;0.82;0.82;;;;;;;;;;7394343;19;20349;-84
2023/08/14 23:55:11;;;;;;;0.70;0.70;;;;;;;;;;7390970;19;20416;-84
2023/08/14 23:57:37;;;;;;;0.73;0.73;;;;;;;;;;7391829;19;20360;-84
